Time;durP1;ratioP1;P1;durP2;ratioP2;P2;SDS_P1;SDS_P2;PMS_P1;PMS_P2;Temp;Humidity;BMP_temperature;BMP_pressure;BME280_temperature;BME280_humidity;BME280_pressure;Samples;Min_cycle;Max_cycle;Signal;HPM_P1;HPM_P2
2022/02/23 00:00:18;;;;;;;12.50;2.40;;;10.00;87.10;;;;;;5015785;28;20022;-77
2022/02/23 00:02:43;;;;;;;12.75;2.65;;;10.00;87.00;;;;;;5014587;28;20116;-78
2022/02/23 00:05:09;;;;;;;12.30;2.20;;;10.00;87.00;;;;;;5014377;28;20077;-77
2022/02/23 00:07:35;;;;;;;10.25;2.20;;;10.00;87.00;;;;;;5015677;28;20033;-78
2022/02/23 00:10:01;;;;;;;15.38;2.92;;;10.00;87.00;;;;;;5014060;28;20484;-77
2022/02/23 00:12:26;;;;;;;10.35;2.05;;;10.00;86.90;;;;;;5015299;28;20037;-77
2022/02/23 00:14:52;;;;;;;9.70;2.55;;;10.00;86.90;;;;;;5015666;28;20065;-76
2022/02/23 00:17:20;;;;;;;12.90;2.33;;;10.00;86.90;;;;;;5014159;28;20030;-76
2022/02/23 00:19:46;;;;;;;12.65;2.60;;;10.00;87.00;;;;;;5014863;28;20014;-76
2022/02/23 00:22:12;;;;;;;13.60;2.45;;;10.00;87.00;;;;;;5014299;28;20022;-77
2022/02/23 00:24:37;;;;;;;15.75;1.92;;;10.00;86.90;;;;;;5013797;28;20446;-77
2022/02/23 00:27:03;;;;;;;12.60;2.30;;;10.00;86.90;;;;;;5014191;28;20033;-77
2022/02/23 00:29:28;;;;;;;10.23;2.17;;;10.00;86.90;;;;;;5013734;28;20065;-76
2022/02/23 00:31:54;;;;;;;12.50;2.22;;;10.00;86.90;;;;;;5014163;28;20080;-76
2022/02/23 00:34:19;;;;;;;10.40;2.40;;;10.00;86.90;;;;;;5015612;28;20026;-77
2022/02/23 00:36:45;;;;;;;12.68;2.65;;;10.00;86.70;;;;;;5014017;28;20053;-77
2022/02/23 00:39:10;;;;;;;11.02;2.42;;;10.00;86.80;;;;;;5013728;28;20056;-77
2022/02/23 00:41:36;;;;;;;12.60;2.63;;;10.00;86.90;;;;;;5015106;28;20022;-77
2022/02/23 00:44:02;;;;;;;11.88;2.38;;;10.00;86.80;;;;;;5014991;28;20053;-76
2022/02/23 00:46:27;;;;;;;10.05;1.90;;;10.00;86.70;;;;;;5015100;28;20030;-77
2022/02/23 00:48:54;;;;;;;11.95;2.15;;;10.00;86.70;;;;;;5014526;28;20038;-77
2022/02/23 00:51:20;;;;;;;9.07;2.20;;;10.00;86.80;;;;;;5014768;28;20029;-79
2022/02/23 00:53:46;;;;;;;10.45;2.58;;;10.00;86.80;;;;;;5013573;28;20033;-76
2022/02/23 00:56:11;;;;;;;9.95;2.58;;;10.00;86.80;;;;;;5013513;28;20021;-77
2022/02/23 00:58:37;;;;;;;9.45;2.30;;;10.00;86.80;;;;;;5014200;28;20026;-77
2022/02/23 01:01:03;;;;;;;9.65;1.80;;;10.00;86.80;;;;;;5013491;28;20024;-77
2022/02/23 01:03:28;;;;;;;8.98;1.65;;;10.00;86.70;;;;;;5013534;28;20024;-77
2022/02/23 01:05:54;;;;;;;11.35;2.00;;;10.00;86.70;;;;;;5013713;28;20099;-77
2022/02/23 01:08:20;;;;;;;12.65;2.00;;;10.00;86.70;;;;;;5013946;28;20057;-77
2022/02/23 01:10:45;;;;;;;8.70;1.90;;;10.00;86.70;;;;;;5014393;28;20026;-76
2022/02/23 01:13:11;;;;;;;10.68;2.25;;;10.00;86.60;;;;;;5013104;28;20022;-76
2022/02/23 01:15:37;;;;;;;10.55;2.38;;;10.00;86.70;;;;;;5013269;28;20022;-76
2022/02/23 01:18:03;;;;;;;10.18;2.28;;;10.00;86.70;;;;;;5012983;28;20053;-75
2022/02/23 01:20:28;;;;;;;10.50;2.33;;;10.00;86.70;;;;;;5013975;28;20026;-78
2022/02/23 01:22:59;;;;;;;11.95;2.10;;;10.00;86.60;;;;;;5013000;28;20112;-77
2022/02/23 01:25:25;;;;;;;8.55;1.90;;;10.00;86.70;;;;;;5014412;28;20060;-76
2022/02/23 01:27:52;;;;;;;10.32;2.13;;;10.00;86.70;;;;;;5014224;28;20026;-77
2022/02/23 01:30:18;;;;;;;9.50;2.40;;;10.00;86.60;;;;;;5012888;28;20037;-77
2022/02/23 01:32:44;;;;;;;14.63;2.58;;;10.00;86.60;;;;;;5014330;28;20026;-76
2022/02/23 01:35:10;;;;;;;13.30;2.13;;;10.00;86.60;;;;;;5012980;28;20029;-76
2022/02/23 01:37:36;;;;;;;8.23;2.00;;;10.00;86.60;;;;;;5012838;28;20091;-77
2022/02/23 01:40:02;;;;;;;15.95;2.35;;;10.00;86.60;;;;;;5012585;28;20109;-76
2022/02/23 01:42:27;;;;;;;14.75;2.50;;;10.00;86.60;;;;;;5012668;28;20108;-77
2022/02/23 01:44:53;;;;;;;13.98;2.25;;;10.00;86.60;;;;;;5012728;28;20483;-77
2022/02/23 01:47:19;;;;;;;14.38;2.20;;;10.00;86.50;;;;;;5013847;28;20029;-76
2022/02/23 01:49:44;;;;;;;10.27;2.00;;;10.00;86.60;;;;;;5012446;28;20121;-77
2022/02/23 01:52:10;;;;;;;9.93;2.25;;;10.00;86.60;;;;;;5013831;28;20116;-77
2022/02/23 01:54:36;;;;;;;13.30;2.90;;;10.00;86.50;;;;;;5012619;28;20038;-77
2022/02/23 01:57:02;;;;;;;12.05;2.40;;;10.00;86.50;;;;;;5012436;28;20442;-77
2022/02/23 01:59:28;;;;;;;9.70;2.10;;;10.00;86.50;;;;;;5013825;28;20022;-77
2022/02/23 02:01:53;;;;;;;13.43;2.40;;;10.00;86.50;;;;;;5012489;28;20537;-76
2022/02/23 02:04:22;;;;;;;8.60;2.38;;;10.00;86.50;;;;;;5012329;28;20021;-77
2022/02/23 02:06:51;;;;;;;8.63;2.17;;;10.00;86.40;;;;;;5013536;28;20475;-76
2022/02/23 02:09:18;;;;;;;7.70;1.63;;;10.00;86.40;;;;;;5013427;28;20030;-76
2022/02/23 02:11:44;;;;;;;10.90;2.42;;;10.00;86.50;;;;;;5013240;28;20026;-76
2022/02/23 02:14:10;;;;;;;8.95;1.80;;;10.00;86.50;;;;;;5013858;28;20029;-77
2022/02/23 02:16:36;;;;;;;9.35;1.95;;;10.00;86.50;;;;;;5012360;28;20033;-75
2022/02/23 02:19:03;;;;;;;8.13;1.80;;;10.00;86.40;;;;;;5011466;28;20034;-76
2022/02/23 02:21:49;;;;;;;7.75;1.90;;;10.00;86.40;;;;;;5012134;28;20045;-76
2022/02/23 02:24:14;;;;;;;7.82;1.77;;;10.00;86.40;;;;;;5013433;28;20018;-77
2022/02/23 02:26:40;;;;;;;10.35;2.05;;;10.00;86.50;;;;;;5012049;28;20372;-77
2022/02/23 02:29:06;;;;;;;8.55;1.92;;;10.00;86.50;;;;;;5013037;28;20022;-77
2022/02/23 02:31:31;;;;;;;8.20;2.20;;;10.00;86.40;;;;;;5011907;28;20026;-77
2022/02/23 02:33:57;;;;;;;8.38;2.28;;;10.00;86.50;;;;;;5011934;28;20026;-77
2022/02/23 02:36:22;;;;;;;9.38;2.00;;;10.00;86.50;;;;;;5011819;28;20022;-76
2022/02/23 02:38:48;;;;;;;11.40;2.47;;;10.00;86.40;;;;;;5011385;28;20510;-76
2022/02/23 02:41:13;;;;;;;7.60;2.10;;;10.00;86.50;;;;;;5011768;28;20386;-76
2022/02/23 02:43:39;;;;;;;9.43;1.90;;;10.00;86.50;;;;;;5012046;28;20021;-76
2022/02/23 02:46:04;;;;;;;8.13;2.10;;;10.00;86.40;;;;;;5011801;28;20121;-77
2022/02/23 02:48:30;;;;;;;8.80;1.80;;;10.00;86.50;;;;;;5012664;28;20084;-79
2022/02/23 02:50:56;;;;;;;8.80;2.30;;;10.00;86.50;;;;;;5012933;28;20096;-77
2022/02/23 02:53:21;;;;;;;8.63;2.45;;;10.00;86.50;;;;;;5011684;28;20072;-76
2022/02/23 02:55:47;;;;;;;8.20;1.70;;;10.00;86.50;;;;;;5012895;28;20030;-77
2022/02/23 02:58:13;;;;;;;8.35;2.20;;;10.00;86.40;;;;;;5011447;28;20049;-79
2022/02/23 03:00:39;;;;;;;8.63;1.98;;;10.00;86.40;;;;;;5012850;28;20014;-77
2022/02/23 03:03:05;;;;;;;11.18;2.17;;;10.00;86.30;;;;;;5012771;28;20479;-78
2022/02/23 03:05:31;;;;;;;8.85;2.15;;;10.00;86.40;;;;;;5012816;28;20083;-76
2022/02/23 03:07:57;;;;;;;10.25;2.53;;;10.00;86.40;;;;;;5011505;28;20026;-77
2022/02/23 03:10:23;;;;;;;8.07;1.98;;;10.00;86.40;;;;;;5011395;28;20025;-76
2022/02/23 03:12:48;;;;;;;7.82;2.00;;;10.00;86.40;;;;;;5012292;28;20037;-76
2022/02/23 03:15:14;;;;;;;8.77;1.90;;;10.00;86.50;;;;;;5012749;28;20030;-77
2022/02/23 03:17:40;;;;;;;7.15;2.10;;;10.00;86.50;;;;;;5012386;28;20399;-76
2022/02/23 03:20:07;;;;;;;14.35;2.17;;;10.00;86.40;;;;;;5012392;28;20026;-77
2022/02/23 03:22:34;;;;;;;10.13;2.47;;;10.00;86.40;;;;;;5012602;28;20018;-77
2022/02/23 03:24:59;;;;;;;12.68;2.85;;;10.00;86.40;;;;;;5012624;28;20082;-77
2022/02/23 03:27:25;;;;;;;9.88;2.22;;;10.00;86.40;;;;;;5012587;28;20025;-77
2022/02/23 03:29:50;;;;;;;10.02;2.08;;;9.90;86.40;;;;;;5013866;28;20025;-77
2022/02/23 03:32:16;;;;;;;8.93;2.17;;;10.00;86.40;;;;;;5015199;28;20022;-77
2022/02/23 03:34:42;;;;;;;11.10;2.38;;;10.00;86.50;;;;;;5015224;28;20442;-76
2022/02/23 03:37:07;;;;;;;7.63;2.38;;;10.00;86.30;;;;;;5015059;28;20438;-77
2022/02/23 03:39:33;;;;;;;8.88;2.35;;;10.00;86.30;;;;;;5014906;28;20022;-79
2022/02/23 03:41:59;;;;;;;9.18;2.13;;;10.00;86.20;;;;;;5015077;28;20022;-77
2022/02/23 03:44:24;;;;;;;7.97;1.90;;;10.00;86.20;;;;;;5012724;28;20025;-77
2022/02/23 03:46:50;;;;;;;8.63;1.98;;;10.00;86.30;;;;;;5007667;28;20023;-77
2022/02/23 03:49:15;;;;;;;8.20;1.80;;;9.90;86.30;;;;;;4996588;28;20467;-77
2022/02/23 03:51:41;;;;;;;7.07;2.00;;;9.90;86.20;;;;;;4996514;28;20030;-77
2022/02/23 03:54:07;;;;;;;10.88;2.42;;;9.90;86.30;;;;;;4995357;28;20030;-76
2022/02/23 03:56:38;;;;;;;8.43;2.40;;;9.90;86.10;;;;;;4995187;28;20026;-76
2022/02/23 03:59:06;;;;;;;7.32;1.90;;;10.00;86.20;;;;;;4994995;28;20489;-77
2022/02/23 04:01:33;;;;;;;9.10;2.20;;;10.00;86.20;;;;;;4996247;28;20043;-78
2022/02/23 04:04:00;;;;;;;11.25;2.53;;;10.00;86.20;;;;;;4996358;28;20145;-76
2022/02/23 04:06:26;;;;;;;8.48;2.28;;;10.00;86.20;;;;;;4994991;28;20053;-76
2022/02/23 04:08:53;;;;;;;6.05;1.88;;;10.00;86.20;;;;;;4995905;28;20630;-76
2022/02/23 04:11:19;;;;;;;10.05;2.30;;;10.00;86.20;;;;;;4994983;28;20037;-77
2022/02/23 04:13:45;;;;;;;9.57;2.05;;;10.00;86.00;;;;;;4996120;28;20034;-77
2022/02/23 04:16:10;;;;;;;9.85;2.00;;;10.00;86.20;;;;;;4994935;28;20061;-77
2022/02/23 04:18:37;;;;;;;6.90;1.60;;;9.90;86.60;;;;;;4995775;28;20026;-77
2022/02/23 04:21:04;;;;;;;8.35;2.35;;;9.90;86.10;;;;;;4994854;28;20046;-77
2022/02/23 04:23:29;;;;;;;9.93;2.20;;;9.90;86.00;;;;;;4994915;28;20504;-77
2022/02/23 04:25:55;;;;;;;10.98;2.20;;;9.90;86.10;;;;;;4995940;28;20031;-76
2022/02/23 04:28:25;;;;;;;12.13;2.40;;;9.90;86.10;;;;;;4994380;28;20029;-76
2022/02/23 04:30:51;;;;;;;11.32;2.50;;;9.90;86.10;;;;;;4994580;28;20036;-77
2022/02/23 04:33:17;;;;;;;7.32;1.77;;;9.90;86.10;;;;;;4994826;28;20113;-76
2022/02/23 04:35:43;;;;;;;8.70;1.98;;;9.90;86.10;;;;;;4995802;28;20522;-77
2022/02/23 04:38:08;;;;;;;9.48;2.13;;;9.90;86.10;;;;;;4994208;28;20034;-77
2022/02/23 04:40:34;;;;;;;10.88;2.40;;;9.90;86.10;;;;;;4994083;28;20027;-78
2022/02/23 04:43:00;;;;;;;9.95;2.42;;;10.00;86.00;;;;;;4997848;28;20061;-76
2022/02/23 04:45:25;;;;;;;9.55;2.08;;;10.00;86.60;;;;;;5013959;28;20037;-76
2022/02/23 04:47:51;;;;;;;8.30;1.83;;;9.90;86.00;;;;;;5015016;28;20483;-76
2022/02/23 04:50:17;;;;;;;8.80;1.77;;;9.90;86.00;;;;;;5013578;28;20121;-78
2022/02/23 04:52:42;;;;;;;9.18;2.15;;;9.90;86.10;;;;;;5013912;28;20119;-77
2022/02/23 04:55:08;;;;;;;11.60;2.22;;;9.90;86.00;;;;;;5013774;28;20398;-77
2022/02/23 04:57:34;;;;;;;6.70;2.00;;;9.90;86.00;;;;;;5013561;28;20036;-76
2022/02/23 04:59:59;;;;;;;13.15;2.45;;;9.90;86.00;;;;;;5013429;28;20022;-77
2022/02/23 05:02:25;;;;;;;9.68;1.85;;;9.90;86.00;;;;;;5014949;28;20033;-76
2022/02/23 05:04:50;;;;;;;8.45;2.33;;;9.90;86.00;;;;;;5013347;28;20025;-73
2022/02/23 05:07:16;;;;;;;10.20;2.35;;;9.90;86.00;;;;;;5013115;28;20025;-77
2022/02/23 05:09:42;;;;;;;8.23;2.13;;;9.90;85.90;;;;;;5013099;28;20022;-77
2022/02/23 05:12:08;;;;;;;10.00;2.05;;;9.90;86.00;;;;;;5013119;28;20021;-77
2022/02/23 05:14:34;;;;;;;14.02;2.60;;;9.90;86.00;;;;;;5013369;28;20029;-77
2022/02/23 05:17:00;;;;;;;9.93;2.20;;;9.90;86.10;;;;;;5013111;28;20444;-77
2022/02/23 05:19:25;;;;;;;10.38;2.30;;;9.90;86.10;;;;;;5013040;28;20173;-77
2022/02/23 05:21:51;;;;;;;7.78;1.70;;;9.90;86.10;;;;;;5013344;28;20018;-77
2022/02/23 05:24:16;;;;;;;11.07;2.15;;;9.90;85.90;;;;;;5013143;28;20022;-77
2022/02/23 05:26:42;;;;;;;8.13;2.08;;;9.90;85.90;;;;;;5013156;28;20026;-77
2022/02/23 05:29:07;;;;;;;7.05;1.92;;;9.90;86.00;;;;;;5013706;28;20030;-75
2022/02/23 05:31:33;;;;;;;10.20;2.50;;;9.90;86.00;;;;;;5010718;28;20076;-78
2022/02/23 05:33:58;;;;;;;8.55;1.90;;;9.90;86.00;;;;;;5010953;28;20030;-75
2022/02/23 05:36:24;;;;;;;10.05;2.38;;;9.90;86.10;;;;;;5013266;28;20053;-78
2022/02/23 05:38:50;;;;;;;7.18;2.00;;;9.90;86.00;;;;;;5010924;28;20088;-77
2022/02/23 05:41:15;;;;;;;10.20;2.40;;;9.90;86.00;;;;;;5012862;28;20042;-78
2022/02/23 05:43:40;;;;;;;9.30;2.30;;;9.90;86.00;;;;;;5010512;28;20022;-77
2022/02/23 05:46:06;;;;;;;13.32;2.25;;;9.90;86.00;;;;;;5012339;28;20026;-76
2022/02/23 05:48:32;;;;;;;9.15;1.85;;;9.90;86.00;;;;;;5012367;28;20030;-77
2022/02/23 05:50:57;;;;;;;10.35;2.03;;;9.90;86.00;;;;;;5009949;28;20029;-76
2022/02/23 05:53:23;;;;;;;9.82;2.20;;;9.90;86.10;;;;;;5022123;28;20445;-80
2022/02/23 05:55:48;;;;;;;9.43;2.00;;;9.90;86.10;;;;;;5031290;28;20036;-76
2022/02/23 05:58:14;;;;;;;11.45;2.33;;;9.90;86.00;;;;;;5010394;28;20026;-78
2022/02/23 06:00:40;;;;;;;11.55;2.65;;;9.90;86.00;;;;;;5007550;28;20614;-77
2022/02/23 06:03:09;;;;;;;10.13;2.50;;;9.90;86.00;;;;;;5010812;28;20056;-80
2022/02/23 06:05:35;;;;;;;8.43;2.15;;;9.90;86.00;;;;;;5010698;28;20030;-78
2022/02/23 06:08:01;;;;;;;10.88;2.40;;;9.90;86.00;;;;;;5010879;28;20136;-76
2022/02/23 06:10:27;;;;;;;12.40;2.70;;;9.90;85.50;;;;;;5008475;28;20034;-75
2022/02/23 06:12:53;;;;;;;9.77;2.33;;;9.90;84.30;;;;;;5011222;28;20022;-76
2022/02/23 06:15:19;;;;;;;10.80;2.30;;;9.90;84.90;;;;;;5010143;28;20029;-80
2022/02/23 06:17:45;;;;;;;9.60;2.42;;;9.80;85.20;;;;;;5014713;28;20139;-79
2022/02/23 06:20:11;;;;;;;10.40;2.30;;;9.80;85.30;;;;;;5009597;28;20437;-77
2022/02/23 06:22:37;;;;;;;11.90;2.58;;;9.90;85.30;;;;;;5011273;28;20488;-76
2022/02/23 06:25:03;;;;;;;9.63;2.05;;;9.90;85.20;;;;;;5030770;28;20080;-76
2022/02/23 06:27:29;;;;;;;8.77;2.63;;;9.90;85.50;;;;;;5023037;28;20018;-76
2022/02/23 06:29:54;;;;;;;10.77;2.15;;;9.90;85.40;;;;;;5010137;28;20416;-76
2022/02/23 06:32:20;;;;;;;9.60;2.30;;;9.90;85.30;;;;;;5009371;28;20101;-76
2022/02/23 06:34:46;;;;;;;11.35;2.33;;;9.90;85.30;;;;;;5009239;28;20049;-78
2022/02/23 06:37:13;;;;;;;13.80;2.70;;;9.90;84.40;;;;;;5010173;28;20022;-75
2022/02/23 06:39:41;;;;;;;19.88;3.70;;;9.80;83.10;;;;;;5010047;28;20394;-77
2022/02/23 06:42:07;;;;;;;14.18;3.13;;;9.80;83.50;;;;;;5009616;28;20563;-76
2022/02/23 06:44:33;;;;;;;14.40;2.70;;;9.90;84.30;;;;;;5009507;28;20117;-77
2022/02/23 06:47:00;;;;;;;11.70;2.35;;;9.90;84.60;;;;;;5011805;28;20028;-79
2022/02/23 06:49:27;;;;;;;8.23;2.22;;;9.90;84.60;;;;;;5011511;28;20463;-78
2022/02/23 06:51:58;;;;;;;11.02;2.70;;;9.90;84.60;;;;;;5011806;28;20025;-78
2022/02/23 06:54:27;;;;;;;10.40;2.53;;;9.90;84.90;;;;;;5012537;28;20056;-75
2022/02/23 06:56:53;;;;;;;11.10;2.45;;;9.90;84.90;;;;;;5012272;28;20030;-77
2022/02/23 06:59:19;;;;;;;10.95;2.30;;;9.90;85.00;;;;;;5011993;28;20395;-77
2022/02/23 07:01:44;;;;;;;11.10;2.50;;;9.90;84.90;;;;;;5011178;28;20022;-77
2022/02/23 07:04:10;;;;;;;11.02;2.60;;;10.00;84.90;;;;;;5012313;28;20382;-77
2022/02/23 07:06:36;;;;;;;11.07;2.40;;;10.00;84.80;;;;;;5012285;28;20495;-77
2022/02/23 07:09:02;;;;;;;10.00;2.35;;;10.00;84.90;;;;;;5011100;28;20064;-78
2022/02/23 07:11:29;;;;;;;12.95;2.97;;;10.00;84.80;;;;;;5011396;28;20506;-77
2022/02/23 07:13:54;;;;;;;11.55;2.40;;;10.00;84.60;;;;;;5011002;28;20029;-77
2022/02/23 07:16:23;;;;;;;10.40;2.40;;;10.00;84.70;;;;;;5010899;28;20093;-78
2022/02/23 07:18:51;;;;;;;10.35;2.75;;;10.00;84.60;;;;;;5010625;28;20040;-78
2022/02/23 07:21:17;;;;;;;12.23;2.83;;;10.10;84.50;;;;;;5010941;28;20402;-78
2022/02/23 07:23:42;;;;;;;9.20;2.28;;;10.10;84.50;;;;;;5010889;28;20579;-77
2022/02/23 07:26:08;;;;;;;12.90;2.58;;;10.10;84.40;;;;;;5012025;28;20105;-78
2022/02/23 07:28:33;;;;;;;11.75;2.40;;;10.10;84.20;;;;;;5011739;28;20076;-77
2022/02/23 07:30:59;;;;;;;11.77;2.78;;;10.20;84.20;;;;;;5010687;28;20438;-77
2022/02/23 07:33:25;;;;;;;9.07;2.15;;;10.20;84.10;;;;;;5010883;28;20513;-77
2022/02/23 07:35:50;;;;;;;12.10;2.70;;;10.20;84.10;;;;;;5010793;28;20033;-77
2022/02/23 07:38:16;;;;;;;9.32;2.55;;;10.20;83.80;;;;;;5010329;28;20065;-77
2022/02/23 07:40:42;;;;;;;11.73;2.97;;;10.30;83.60;;;;;;5010661;28;20026;-77
2022/02/23 07:43:09;;;;;;;9.88;2.35;;;10.30;83.40;;;;;;5010076;28;20038;-79
2022/02/23 07:45:37;;;;;;;8.88;2.20;;;10.30;83.20;;;;;;5010575;28;20460;-78
2022/02/23 07:48:04;;;;;;;9.85;2.70;;;10.30;83.00;;;;;;5010237;28;20056;-74
2022/02/23 07:50:31;;;;;;;9.43;2.67;;;10.40;83.60;;;;;;5010310;28;20068;-79
2022/02/23 07:52:57;;;;;;;10.35;2.83;;;10.40;83.10;;;;;;5010424;28;20033;-77
2022/02/23 07:55:24;;;;;;;9.10;2.40;;;10.30;83.10;;;;;;5011595;28;20030;-78
2022/02/23 07:57:50;;;;;;;10.90;2.85;;;10.40;83.20;;;;;;5010253;28;20026;-76
2022/02/23 08:00:18;;;;;;;8.65;2.33;;;10.40;83.00;;;;;;5010064;28;20033;-77
2022/02/23 08:02:44;;;;;;;9.88;2.88;;;10.40;82.90;;;;;;5011675;28;20021;-74
2022/02/23 08:05:09;;;;;;;7.82;2.17;;;10.40;82.60;;;;;;5010229;28;20529;-78
2022/02/23 08:07:35;;;;;;;9.95;2.58;;;10.50;82.40;;;;;;5010453;28;20133;-78
2022/02/23 08:10:03;;;;;;;10.60;2.85;;;10.50;82.30;;;;;;5010100;28;20030;-79
2022/02/23 08:12:28;;;;;;;11.18;2.45;;;10.50;82.20;;;;;;5011698;28;20029;-77
2022/02/23 08:14:55;;;;;;;9.80;2.85;;;10.50;82.10;;;;;;5010455;28;20112;-77
2022/02/23 08:20:07;;;;;;;10.43;3.08;;;10.60;81.80;;;;;;5015335;28;20029;-78
2022/02/23 08:22:33;;;;;;;9.80;2.83;;;10.60;81.60;;;;;;5013882;28;20503;-77
2022/02/23 08:24:58;;;;;;;10.70;2.75;;;10.70;81.50;;;;;;5014976;28;20022;-76
2022/02/23 08:27:25;;;;;;;11.70;2.65;;;10.70;81.30;;;;;;5014906;28;20026;-77
2022/02/23 08:29:54;;;;;;;9.90;2.90;;;10.70;81.40;;;;;;5014689;28;20025;-77
2022/02/23 08:32:23;;;;;;;10.88;2.60;;;10.80;81.30;;;;;;5014956;28;20053;-78
2022/02/23 08:34:54;;;;;;;10.55;2.95;;;10.80;81.10;;;;;;5014942;28;20101;-78
2022/02/23 08:37:20;;;;;;;10.13;2.77;;;10.90;80.90;;;;;;5014826;28;20117;-78
2022/02/23 08:39:48;;;;;;;11.18;2.50;;;10.90;80.50;;;;;;5014719;28;20710;-77
2022/02/23 08:42:15;;;;;;;9.68;3.00;;;10.90;80.40;;;;;;5013670;28;20503;-77
2022/02/23 08:44:41;;;;;;;9.82;3.00;;;10.90;80.20;;;;;;5014266;28;20038;-78
2022/02/23 08:47:08;;;;;;;8.32;2.70;;;11.00;80.10;;;;;;5013232;28;20029;-78
2022/02/23 08:49:33;;;;;;;8.95;2.60;;;11.00;80.30;;;;;;5014317;28;20391;-78
2022/02/23 08:51:59;;;;;;;10.88;2.92;;;11.00;79.90;;;;;;5013292;28;20026;-77
2022/02/23 08:54:24;;;;;;;10.18;2.60;;;11.00;79.90;;;;;;5013371;28;20399;-77
2022/02/23 08:56:50;;;;;;;10.98;2.47;;;11.00;79.80;;;;;;5013250;28;20026;-78
2022/02/23 08:59:16;;;;;;;11.02;2.42;;;11.00;79.80;;;;;;5012899;28;20483;-78
2022/02/23 09:01:43;;;;;;;9.25;2.80;;;11.10;79.90;;;;;;5013021;28;20053;-78
2022/02/23 09:04:08;;;;;;;11.00;2.63;;;11.10;79.80;;;;;;5013153;28;20025;-77
2022/02/23 09:06:36;;;;;;;8.65;2.38;;;11.10;79.90;;;;;;5013136;28;20022;-79
2022/02/23 09:09:03;;;;;;;9.15;2.70;;;11.10;79.60;;;;;;5013986;28;20100;-77
2022/02/23 09:11:29;;;;;;;9.02;2.28;;;11.20;79.60;;;;;;5013016;28;20030;-78
2022/02/23 09:13:56;;;;;;;9.95;2.58;;;11.20;79.50;;;;;;5014164;28;20113;-77
2022/02/23 09:16:21;;;;;;;9.45;2.38;;;11.20;79.40;;;;;;5012677;28;20030;-77
2022/02/23 09:18:47;;;;;;;9.20;2.30;;;11.20;79.30;;;;;;5013669;28;20507;-78
2022/02/23 09:21:13;;;;;;;9.65;2.80;;;11.20;79.30;;;;;;5012792;28;20018;-78
2022/02/23 09:23:38;;;;;;;8.95;2.75;;;11.20;79.30;;;;;;5012811;28;20022;-77
2022/02/23 09:26:05;;;;;;;8.18;2.30;;;11.20;79.20;;;;;;5012682;28;20481;-77
2022/02/23 09:28:32;;;;;;;9.68;2.60;;;11.20;79.10;;;;;;5012592;28;20129;-77
2022/02/23 09:30:57;;;;;;;7.53;2.15;;;11.20;79.10;;;;;;5013672;28;20033;-77
2022/02/23 09:33:24;;;;;;;8.93;2.50;;;11.30;79.20;;;;;;5012488;28;20026;-77
2022/02/23 09:35:50;;;;;;;8.40;2.47;;;11.20;79.10;;;;;;5012702;28;20036;-78
2022/02/23 09:38:17;;;;;;;9.73;2.67;;;11.30;79.10;;;;;;5012002;28;20121;-78
2022/02/23 09:40:52;;;;;;;10.57;2.58;;;11.30;79.10;;;;;;5013680;28;20029;-77
2022/02/23 09:43:18;;;;;;;9.70;2.63;;;11.30;78.90;;;;;;5013243;28;20026;-79
2022/02/23 09:45:51;;;;;;;11.82;2.70;;;11.30;78.90;;;;;;5012311;28;20064;-79
2022/02/23 09:48:17;;;;;;;7.40;2.08;;;11.30;78.80;;;;;;5011829;28;20506;-77
2022/02/23 09:50:42;;;;;;;8.32;2.67;;;11.40;78.90;;;;;;5012322;28;20034;-77
2022/02/23 09:53:09;;;;;;;9.13;2.38;;;11.30;78.70;;;;;;5013398;28;20084;-77
2022/02/23 09:55:34;;;;;;;10.43;2.50;;;11.40;78.80;;;;;;5013242;28;20040;-79
2022/02/23 09:58:00;;;;;;;10.10;2.65;;;11.40;78.80;;;;;;5013132;28;20113;-77
2022/02/23 10:00:25;;;;;;;10.60;2.63;;;11.40;78.70;;;;;;5011955;28;20036;-77
2022/02/23 10:02:54;;;;;;;11.13;3.15;;;11.40;79.00;;;;;;5013246;28;20026;-77
2022/02/23 10:05:21;;;;;;;9.15;2.72;;;11.40;78.70;;;;;;5013216;28;20026;-78
2022/02/23 10:07:47;;;;;;;8.85;2.40;;;11.40;78.70;;;;;;5011748;28;20022;-78
2022/02/23 10:10:28;;;;;;;9.02;2.58;;;11.50;78.60;;;;;;5011608;28;20029;-77
2022/02/23 10:12:54;;;;;;;9.20;2.38;;;11.40;78.60;;;;;;5011929;28;20052;-79
2022/02/23 10:15:20;;;;;;;9.25;2.42;;;11.40;78.60;;;;;;5011813;28;20030;-77
2022/02/23 10:17:47;;;;;;;8.88;2.63;;;11.40;78.60;;;;;;5011412;28;20057;-80
2022/02/23 10:20:38;;;;;;;9.93;2.42;;;11.50;78.60;;;;;;5011522;28;20025;-77
2022/02/23 10:23:18;;;;;;;8.23;2.70;;;11.40;78.60;;;;;;5012929;28;20025;-77
2022/02/23 10:25:51;;;;;;;10.73;2.80;;;11.50;78.70;;;;;;5012962;28;20022;-77
2022/02/23 10:28:22;;;;;;;9.70;2.50;;;11.40;78.80;;;;;;5012429;28;20025;-78
2022/02/23 10:30:51;;;;;;;9.18;2.35;;;11.40;79.40;;;;;;5011527;28;20033;-77
2022/02/23 10:33:18;;;;;;;9.77;2.50;;;11.40;78.90;;;;;;5012941;28;20026;-77
2022/02/23 10:36:18;;;;;;;9.73;2.78;;;11.40;78.90;;;;;;5012687;28;20096;-77
2022/02/23 10:38:47;;;;;;;8.27;2.65;;;11.50;78.90;;;;;;5011445;28;20042;-77
2022/02/23 10:41:24;;;;;;;9.85;2.28;;;11.50;78.80;;;;;;5011330;28;20046;-77
2022/02/23 10:43:50;;;;;;;6.88;2.45;;;11.50;78.70;;;;;;5010991;28;20104;-77
2022/02/23 10:46:17;;;;;;;9.30;3.03;;;11.50;78.70;;;;;;5011322;28;20577;-77
2022/02/23 10:48:45;;;;;;;6.95;2.10;;;11.50;78.60;;;;;;5012239;28;20025;-77
2022/02/23 10:51:32;;;;;;;8.32;2.63;;;11.50;78.50;;;;;;5011252;28;20391;-77
2022/02/23 10:54:09;;;;;;;10.00;2.50;;;11.60;78.40;;;;;;5011071;28;20116;-77
2022/02/23 10:56:40;;;;;;;9.50;2.50;;;11.60;78.30;;;;;;5011195;28;20116;-77
2022/02/23 10:59:15;;;;;;;11.80;3.10;;;11.60;78.20;;;;;;5012088;28;20168;-77
2022/02/23 11:01:42;;;;;;;9.40;2.40;;;11.60;78.20;;;;;;5012180;28;20260;-78
2022/02/23 11:04:09;;;;;;;7.60;2.17;;;11.70;78.20;;;;;;5011229;28;20100;-79
2022/02/23 11:06:35;;;;;;;8.75;2.67;;;11.70;78.20;;;;;;5011095;28;20069;-78
2022/02/23 11:09:02;;;;;;;8.18;2.45;;;11.70;78.00;;;;;;5010734;28;20030;-78
2022/02/23 11:11:28;;;;;;;7.60;2.22;;;11.70;78.00;;;;;;5011071;28;20068;-77
2022/02/23 11:13:56;;;;;;;9.02;2.40;;;11.70;78.00;;;;;;5012281;28;20026;-77
2022/02/23 11:16:23;;;;;;;8.27;2.42;;;11.70;77.90;;;;;;5012102;28;20480;-77
2022/02/23 11:18:48;;;;;;;8.90;2.42;;;11.70;77.90;;;;;;5010519;28;20042;-77
2022/02/23 11:21:17;;;;;;;7.95;2.28;;;11.70;77.80;;;;;;5010903;28;20018;-77
2022/02/23 11:23:45;;;;;;;7.13;2.00;;;11.80;77.80;;;;;;5010910;28;20368;-77
2022/02/23 11:26:15;;;;;;;5.50;1.80;;;11.80;77.80;;;;;;5011068;28;20081;-77
2022/02/23 11:28:49;;;;;;;6.75;2.28;;;11.80;77.80;;;;;;5010797;28;20117;-77
2022/02/23 11:31:16;;;;;;;6.20;1.85;;;11.80;77.80;;;;;;5012124;28;20065;-77
2022/02/23 11:33:53;;;;;;;7.47;2.25;;;11.80;77.70;;;;;;5010864;28;20055;-77
2022/02/23 11:36:35;;;;;;;7.65;2.10;;;11.80;77.60;;;;;;5012083;28;20048;-77
2022/02/23 11:39:06;;;;;;;6.78;1.90;;;11.80;77.60;;;;;;5010396;28;20121;-78
2022/02/23 11:41:37;;;;;;;9.07;2.83;;;11.80;77.60;;;;;;5012003;28;20054;-77
2022/02/23 11:44:09;;;;;;;8.07;2.45;;;11.80;77.60;;;;;;5010758;28;20022;-77
2022/02/23 11:50:06;;;;;;;8.48;2.25;;;11.80;77.50;;;;;;5011830;28;20446;-77
2022/02/23 11:53:10;;;;;;;6.45;1.88;;;11.90;77.60;;;;;;5014300;28;20152;-77
2022/02/23 11:56:10;;;;;;;8.35;2.40;;;11.80;77.50;;;;;;5015612;28;20095;-77
2022/02/23 12:01:49;;;;;;;7.20;2.25;;;11.80;77.50;;;;;;5015818;28;20418;-77
2022/02/23 12:04:18;;;;;;;6.15;2.17;;;11.80;77.50;;;;;;5015581;28;20639;-77
2022/02/23 12:07:09;;;;;;;8.23;2.08;;;11.80;77.50;;;;;;5015353;28;20014;-77
2022/02/23 12:09:59;;;;;;;7.38;2.20;;;11.80;77.50;;;;;;5013834;28;20026;-77
2022/02/23 12:12:45;;;;;;;8.53;2.23;;;11.80;77.50;;;;;;5014045;28;20021;-77
2022/02/23 12:15:25;;;;;;;6.57;2.15;;;11.80;77.50;;;;;;5015332;28;20261;-77
2022/02/23 12:18:08;;;;;;;6.80;2.28;;;11.80;77.60;;;;;;5014824;28;20121;-77
2022/02/23 12:20:37;;;;;;;7.13;2.03;;;11.80;77.60;;;;;;5013736;28;20030;-77
2022/02/23 12:23:08;;;;;;;9.00;2.13;;;11.80;77.60;;;;;;5013974;28;20080;-77
2022/02/23 12:25:55;;;;;;;7.18;2.25;;;11.80;77.70;;;;;;5013876;28;20022;-77
2022/02/23 12:28:22;;;;;;;7.90;2.30;;;11.80;77.80;;;;;;5014683;28;20121;-78
2022/02/23 12:30:49;;;;;;;7.30;2.25;;;11.80;77.80;;;;;;5014900;28;20034;-77
2022/02/23 12:33:16;;;;;;;8.45;1.92;;;11.80;77.80;;;;;;5013686;28;20026;-78
2022/02/23 12:35:44;;;;;;;8.63;2.20;;;11.70;77.80;;;;;;5014846;28;20026;-77
2022/02/23 12:38:10;;;;;;;5.85;1.92;;;11.70;77.80;;;;;;5013440;28;20036;-77
2022/02/23 12:40:39;;;;;;;7.60;2.10;;;11.80;77.80;;;;;;5014710;28;20095;-77
2022/02/23 12:43:11;;;;;;;7.03;2.20;;;11.80;77.90;;;;;;5013532;28;20026;-77
2022/02/23 12:45:50;;;;;;;8.65;2.25;;;11.80;77.90;;;;;;5013602;28;20022;-77
2022/02/23 12:48:16;;;;;;;9.18;2.30;;;11.80;77.90;;;;;;5013074;28;20083;-78
2022/02/23 12:50:42;;;;;;;8.13;2.00;;;11.80;77.90;;;;;;5014508;28;20026;-77
2022/02/23 12:53:08;;;;;;;7.63;2.08;;;11.80;77.90;;;;;;5013266;28;20117;-79
2022/02/23 12:55:34;;;;;;;6.90;2.38;;;11.80;77.80;;;;;;5013493;28;20527;-77